Sudbury Airport
CYSB : now visible

Airfield :











YOU CAN JOIN US ON...

 
LOGIN :

Register | Disclaimer

   EN    FR    IT 

 









Legend :    VFR   Marginal VFR   IFR   Intensive IFR   Very Intensive IFR
Visi :
Ceiling :
>= 8 km
>= 3000ft
5 to 8 km
1000 to 3000 ft
1500m to 5 km
500 to 1000 ft
800 to 1500m
200 to 500 ft
< 800m
< 200 ft
Symbols :   Thunderstorms  Fog  Heavy snow  Heavy precipitations  Wind > 20 kt






- Airport Elevation : 1141 ft
- IATA code : YSB


CYSB - Sudbury

CURRENT METAR :
  • 141600Z 22008KT 4SM -SN SCT008 OVC028 M04/M05 A2996 RMK SC4SC4 SLP170

TAF TAF CYSB
Valid from the 14 at 14:00 until the 15 at 02:00 UTC


141339Z 1414/1502 20008KT P6SM -SHSN SCT020 OVC040
TEMPO 1414/1418 2SM -SHSN BKN007 OVC020
PROB40 1414/1418 11/2SM -SHSN
FM141800 24010KT P6SM SCT020 BKN030
TEMPO 1418/1424 BKN020 OVC030
BECMG 1418/1420 22012G22KT
FM150000 22012G22KT 11/2SM -SN OVC015 RMK NXT FCST BY 142000Z



MET'MAP, your aeronautical weather chart ! - Copyright ORBIFLY December 2007 - Disclaimer

ORBIFLY MET'MAP TEAM :

Programming & Development : Alexandra Zaïnal
Concept & Development : Baudouin d'Aumeries
Co-Development & Prog : Marc-Olivier Méhu
Technical & hardware support : Manuel Goepfert

Contact : metmap@orbifly.com




SOURCES & CREDITS :

   NOAA       Earth
Advisory